Flight Track Log - Related Links

Times and Time Zones

All times are in EDT time to prevent confusion due to time zone crossing. See the N360FE flight status page for this flight to view local times or setup timezone preferences in your user account.

Time Position Orientation Groundspeed Altitude Reporting Facility
EDT Latitude Longitude Course Direction KTS MPH feet Rate Location/Type
Fri 09:07:21 PM 18.5333 -67.0833 353° North 210 242 1,800  Level San Juan Center
Fri 09:08:22 PM 18.6000 -67.1167 335° Northwest 270 311 3,900 1,785 Climbing San Juan Center
Fri 09:09:22 PM 18.6667 -67.1500 335° Northwest 280 322 5,400 1,550 Climbing San Juan Center
Fri 09:10:22 PM 18.7333 -67.1833 335° Northwest 290 334 7,000 1,636 Climbing San Juan Center
Fri 09:11:23 PM 18.8000 -67.2167 335° Northwest 300 345 8,700 1,488 Climbing San Juan Center
Fri 09:12:00 PM 19.1573 -67.2143 353° North  Level FlightAware Approximate
Fri 09:12:23 PM 18.9000 -67.2500 342° North 310 357 10,000  Level San Juan Center
Fri 09:13:23 PM 18.9667 -67.2833 335° Northwest 290 334 10,000  Level San Juan Center
Fri 09:14:24 PM 19.0500 -67.3167 339° North 280 322 10,000  Level San Juan Center
Fri 09:15:24 PM 19.1167 -67.3500 335° Northwest 260 299 10,000  Level San Juan Center
Fri 09:16:24 PM 19.1667 -67.3833 336° Northwest 240 276 10,000  Level San Juan Center
Fri 09:17:24 PM 19.2333 -67.4000 339° North 250 288 10,000  Level San Juan Center
Fri 09:18:25 PM 19.3000 -67.4333 337° Northwest 250 288 10,000  Level San Juan Center
Fri 09:19:25 PM 19.3833 -67.4500 337° Northwest 310 357 10,000 -43 Level San Juan Center
Fri 09:20:45 PM 19.4710 -67.5050 335° Northwest 250 288 9,900 -57 Descending FlightAware ADS-B
Fri 09:21:10 PM 19.4990 -67.5170 338° Northwest 248 285 9,900  Level FlightAware ADS-B
Fri 09:21:35 PM 19.5220 -67.5280 336° Northwest 248 285 9,900  Level FlightAware ADS-B
Fri 09:22:05 PM 19.5490 -67.5400 337° Northwest 248 285 9,900  Level FlightAware ADS-B
Fri 09:22:25 PM 19.5760 -67.5510 339° North 247 284 9,900  Level FlightAware ADS-B
Fri 09:23:00 PM 19.6110 -67.5660 338° Northwest 247 284 9,900  Level FlightAware ADS-B
Fri 09:23:30 PM 19.6380 -67.5780 337° Northwest 247 284 9,900  Level FlightAware ADS-B
Fri 09:23:40 PM 19.6470 -67.5820 337° Northwest 247 284 9,900  Level FlightAware ADS-B
Fri 09:24:10 PM 19.6740 -67.5940 337° Northwest 247 284 9,900 130 Level FlightAware ADS-B
Fri 09:24:26 PM 19.6833 -67.6000 337° Northwest 250 288 10,000 78 Climbing San Juan Center
Fri 09:25:27 PM 19.7500 -67.6333 335° Northwest 240 276 10,000  Level San Juan Center
Fri 09:26:27 PM 19.8167 -67.6500 347° North 250 288 10,000  Level San Juan Center
Fri 09:27:27 PM 19.8833 -67.6833 335° Northwest 250 288 10,000  Level San Juan Center
Fri 09:28:27 PM 19.9500 -67.7167 335° Northwest 250 288 10,000  Level San Juan Center
Fri 09:29:28 PM 20.0167 -67.7333 347° North 250 288 10,000  Level San Juan Center
Fri 09:30:28 PM 20.0667 -67.7667 328° Northwest 250 288 10,000  Level San Juan Center
Fri 09:31:28 PM 20.1333 -67.8000 335° Northwest 240 276 10,000  Level San Juan Center
Fri 09:32:29 PM 20.2000 -67.8167 347° North 250 288 10,000  Level San Juan Center
Fri 09:33:29 PM 20.2667 -67.8500 335° Northwest 240 276 10,000  Level San Juan Center
Fri 09:41:42 PM 20.7833 -68.0833 337° Northwest 250 288 10,000  Level San Juan Center
Fri 09:42:42 PM 20.7500 -68.1500 242° Southwest 150 173 10,000  Level San Juan Center
Fri 09:43:42 PM 20.7000 -68.1333 163° South 240 276 10,000  Level San Juan Center
Fri 09:44:43 PM 20.6333 -68.1000 155° Southeast 230 265 10,000  Level San Juan Center
Fri 09:45:43 PM 20.5667 -68.0833 167° South 230 265 10,000  Level San Juan Center
Fri 09:46:43 PM 20.5000 -68.0500 155° Southeast 230 265 10,000  Level San Juan Center
Fri 09:47:44 PM 20.4500 -68.0333 163° South 230 265 10,000  Level San Juan Center
Fri 09:48:44 PM 20.3833 -68.0167 167° South 240 276 10,000  Level San Juan Center
Fri 09:49:44 PM 20.3167 -67.9833 155° Southeast 240 276 10,000  Level San Juan Center
Fri 09:50:45 PM 20.2500 -67.9667 167° South 240 276 10,000  Level San Juan Center
Fri 09:51:45 PM 20.2000 -67.9333 148° Southeast 240 276 10,000  Level San Juan Center
Fri 09:52:45 PM 20.1333 -67.9167 167° South 230 265 10,000  Level San Juan Center
Fri 09:53:46 PM 20.0667 -67.9000 167° South 230 265 10,000  Level San Juan Center
Fri 09:54:46 PM 20.0000 -67.8667 167° South 230 265 10,000  Level San Juan Center
Fri 09:55:46 PM 19.9500 -67.8500 161° South 240 276 10,000  Level San Juan Center
Fri 09:56:46 PM 19.8833 -67.8333 163° South 240 276 10,000  Level San Juan Center
Fri 09:57:47 PM 19.8167 -67.8000 160° South 240 276 10,000  Level San Juan Center
Fri 09:58:47 PM 19.7667 -67.7833 162° South 230 265 10,000 -47 Level San Juan Center
Fri 09:59:55 PM 19.6920 -67.7610 167° South 236 272 9,900 -68 Descending FlightAware ADS-B
Fri 10:00:15 PM 19.6720 -67.7540 162° South 236 272 9,900  Level FlightAware ADS-B
Fri 10:00:55 PM 19.6310 -67.7390 161° South 234 269 9,900  Level FlightAware ADS-B
Fri 10:01:20 PM 19.6070 -67.7300 161° South 234 269 9,900  Level FlightAware ADS-B
Fri 10:01:45 PM 19.5820 -67.7220 163° South 234 269 9,900  Level FlightAware ADS-B
Fri 10:02:15 PM 19.5560 -67.7120 160° South 234 269 9,900  Level FlightAware ADS-B
Fri 10:02:45 PM 19.5300 -67.7020 160° South 234 269 9,900  Level FlightAware ADS-B
Fri 10:03:15 PM 19.5040 -67.6930 162° South 234 269 9,900 94 Level FlightAware ADS-B
Fri 10:03:49 PM 19.4500 -67.6667 162° South 240 276 10,000 64 Climbing San Juan Center
Fri 10:04:49 PM 19.3833 -67.6500 167° South 240 276 10,000  Level San Juan Center
Fri 10:05:49 PM 19.3167 -67.6333 167° South 230 265 10,000  Level San Juan Center
Fri 10:06:50 PM 19.2667 -67.6000 148° Southeast 230 265 10,000  Level San Juan Center
Fri 10:07:50 PM 19.2000 -67.5833 167° South 230 265 10,000  Level San Juan Center
Fri 10:08:50 PM 19.1333 -67.5667 167° South 230 265 10,000  Level San Juan Center
Fri 10:09:51 PM 19.0833 -67.5333 148° Southeast 230 265 10,000  Level San Juan Center
Fri 10:10:51 PM 19.0167 -67.5167 167° South 240 276 10,000  Level San Juan Center

Login

Don't have an account? Register now (free) for customized features, flight alerts, and more!